Terminal Aerodrome Forecast
Issued by NWS Cleveland, OH

Home | Current Version | Previous Version | Graphics & Text | Print | Product List | Glossary On
Versions: 1 2 3 4 5 6 7 8 9 10 11 12 13 14 15 16 17 18 19
000
FTUS41 KCLE 211124
TAFMFD
TAF
KMFD 211124Z 2112/2212 17012KT 6SM -SHRA BR VCTS SCT025 OVC090CB
      TEMPO 2112/2115 4SM -SHRA BR BKN025
     FM211500 19014G20KT P6SM VCSH BKN025
     FM212200 21014G20KT P6SM VCTS SCT025 BKN050CB
     FM220000 25014KT P6SM BKN035
     FM220800 24006KT 6SM BR BKN025=

USA.gov is the U.S. government's official web portal to all federal, state and local government web resources and services.